createdAt,value
2018-05-23T00:00:17.984Z,70.24
2018-05-23T00:01:27.983Z,69.29
2018-05-23T00:02:37.974Z,69
2018-05-23T00:03:47.935Z,69.86
2018-05-23T00:04:57.663Z,69.95
2018-05-23T00:06:07.645Z,71.11
2018-05-23T00:07:17.108Z,71.3
2018-05-23T00:08:26.829Z,70.72
2018-05-23T00:09:36.796Z,71.11
2018-05-23T00:10:46.778Z,70.72
2018-05-23T00:11:56.774Z,70.62
2018-05-23T00:13:06.751Z,71.01
2018-05-23T00:14:16.719Z,71.48
2018-05-23T00:15:26.436Z,71.77
2018-05-23T00:16:36.150Z,71.97
2018-05-23T00:17:46.119Z,71.3
2018-05-23T00:18:55.826Z,72.02
2018-05-23T00:20:05.802Z,71.83
2018-05-23T00:21:15.766Z,72.41
2018-05-23T00:22:25.225Z,72.69
2018-05-23T00:23:35.197Z,72.12
2018-05-23T00:24:45.163Z,72.5
2018-05-23T00:25:55.156Z,72.6
2018-05-23T00:27:05.142Z,72.79
2018-05-23T00:28:15.103Z,73.36
2018-05-23T00:29:24.553Z,73.08
2018-05-23T00:30:34.527Z,72.98
2018-05-23T00:31:44.504Z,73.27
2018-05-23T00:32:54.225Z,73.27
2018-05-23T00:34:04.227Z,72.69
2018-05-23T00:35:14.214Z,72.98
2018-05-23T00:36:23.940Z,73.84
2018-05-23T00:37:33.926Z,74.32
2018-05-23T00:38:43.901Z,73.75
2018-05-23T00:39:53.618Z,74.41
2018-05-23T00:41:03.333Z,74.7
2018-05-23T00:42:13.311Z,74.99
2018-05-23T00:43:23.282Z,75.09
2018-05-23T00:44:33.268Z,74.61
2018-05-23T00:45:42.978Z,74.51
2018-05-23T00:46:52.948Z,75.18
2018-05-23T00:48:02.934Z,75.85
2018-05-23T00:49:12.913Z,76.04
2018-05-23T00:50:23.062Z,75.76
2018-05-23T00:51:33.141Z,75.66
2018-05-23T00:52:43.170Z,76.23
2018-05-23T00:53:53.135Z,76.52
2018-05-23T00:55:02.589Z,76.29
2018-05-23T00:56:12.307Z,76.71
2018-05-23T00:57:22.015Z,76.71
2018-05-23T00:58:31.980Z,75.95
2018-05-23T00:59:41.958Z,75.62
2018-05-23T01:00:51.920Z,76.29
2018-05-23T01:02:01.888Z,75.91
2018-05-23T01:03:11.868Z,76.39
2018-05-23T01:04:21.584Z,76.2
2018-05-23T01:05:31.557Z,76.86
2018-05-23T01:06:41.540Z,76.39
2018-05-23T01:07:51.501Z,76.2
2018-05-23T01:09:01.475Z,77.25
2018-05-23T01:10:11.459Z,77.34
2018-05-23T01:11:21.439Z,77.53
2018-05-23T01:12:31.409Z,77.72
2018-05-23T01:13:41.376Z,77.44
2018-05-23T01:14:51.215Z,77.63
2018-05-23T01:16:00.663Z,77.63
2018-05-23T01:17:10.631Z,77.82
2018-05-23T01:18:20.364Z,78.11
2018-05-23T01:19:30.337Z,78.78
2018-05-23T01:20:40.056Z,78.58
2018-05-23T01:21:50.067Z,78.39
2018-05-23T01:23:00.055Z,78.2
2018-05-23T01:24:10.041Z,78.78
2018-05-23T01:25:19.770Z,78.93
2018-05-23T01:26:29.489Z,79.5
2018-05-23T01:27:39.453Z,79.25
2018-05-23T01:28:49.435Z,79.31
2018-05-23T01:29:59.407Z,79.12
2018-05-23T01:31:09.119Z,79.31
2018-05-23T01:32:18.831Z,80.46
2018-05-23T01:33:28.856Z,81.22
2018-05-23T01:34:38.855Z,79.79
2018-05-23T01:35:48.845Z,79.88
2018-05-23T01:36:58.829Z,79.79
2018-05-23T01:38:08.804Z,80.27
2018-05-23T01:39:18.555Z,80.36
2018-05-23T01:40:28.007Z,81.03
2018-05-23T01:41:37.969Z,81.7
2018-05-23T01:42:47.929Z,81.03
2018-05-23T01:43:57.637Z,81.6
2018-05-23T01:45:07.601Z,81.89
2018-05-23T01:46:17.322Z,81.89
2018-05-23T01:47:27.040Z,82.56
2018-05-23T01:48:37.008Z,82.18
2018-05-23T01:49:46.986Z,83.04
2018-05-23T01:50:56.956Z,82.18
2018-05-23T01:52:06.928Z,82.37
2018-05-23T01:53:16.899Z,83.13
2018-05-23T01:54:26.860Z,82.37
2018-05-23T01:55:36.837Z,83.23
2018-05-23T01:56:46.806Z,83.8
2018-05-23T01:57:56.556Z,83.9
2018-05-23T01:59:06.288Z,83.33
2018-05-23T02:00:16.278Z,84.33
2018-05-23T02:01:26.265Z,84.47
2018-05-23T02:02:36.231Z,84.72
2018-05-23T02:03:46.224Z,85.14
2018-05-23T02:04:56.416Z,84.72
2018-05-23T02:06:06.128Z,85.48
2018-05-23T02:07:15.315Z,85.38
2018-05-23T02:08:25.282Z,85.58
2018-05-23T02:09:35.260Z,85.86
2018-05-23T02:10:45.233Z,85.67
2018-05-23T02:11:55.198Z,85.96
2018-05-23T02:13:04.996Z,85.58
2018-05-23T02:14:14.703Z,85.86
2018-05-23T02:15:24.421Z,85.48
2018-05-23T02:16:34.389Z,85.19
2018-05-23T02:17:44.377Z,85.19
2018-05-23T02:18:54.078Z,85.48
2018-05-23T02:20:04.056Z,85.38
2018-05-23T02:21:13.817Z,85.96
2018-05-23T02:22:23.884Z,85.96
2018-05-23T02:23:33.851Z,86.53
2018-05-23T02:24:43.819Z,86.34
2018-05-23T02:25:53.521Z,86.24
2018-05-23T02:27:03.488Z,86.91
2018-05-23T02:28:13.450Z,86.63
2018-05-23T02:29:23.168Z,87.48
2018-05-23T02:30:33.142Z,87.48
2018-05-23T02:31:42.892Z,86.72
2018-05-23T02:32:52.632Z,87.2
2018-05-23T02:34:02.606Z,87.39
2018-05-23T02:35:12.590Z,88.06
2018-05-23T02:36:22.563Z,87.96
2018-05-23T02:37:32.548Z,87.01
2018-05-23T02:38:41.744Z,87.06
2018-05-23T02:39:51.721Z,88.2
2018-05-23T02:41:01.690Z,87.87
2018-05-23T02:42:11.409Z,88.3
2018-05-23T02:43:21.129Z,88.2
2018-05-23T02:44:30.856Z,88.2
2018-05-23T02:45:40.596Z,88.78
2018-05-23T02:46:50.580Z,88.87
2018-05-23T02:48:00.668Z,88.63
2018-05-23T02:49:10.403Z,88.87
2018-05-23T02:50:20.367Z,89.35
2018-05-23T02:51:30.345Z,88.59
2018-05-23T02:52:40.324Z,88.87
2018-05-23T02:53:50.311Z,88.4
2018-05-23T02:54:59.767Z,88.78
2018-05-23T02:56:09.756Z,88.68
2018-05-23T02:57:19.784Z,89.45
2018-05-23T02:58:29.500Z,88.59
2018-05-23T02:59:39.229Z,89.06
2018-05-23T03:00:48.955Z,88.2
2018-05-23T03:01:59.033Z,89.16
2018-05-23T03:03:09.088Z,89.45
2018-05-23T03:04:19.062Z,89.35
2018-05-23T03:05:28.518Z,89.83
2018-05-23T03:06:37.968Z,89.54
2018-05-23T03:07:47.684Z,89.45
2018-05-23T03:08:57.647Z,89.54
2018-05-23T03:10:07.739Z,89.35
2018-05-23T03:11:17.202Z,89.06
2018-05-23T03:12:26.917Z,89.35
2018-05-23T03:13:36.630Z,89.06
2018-05-23T03:14:46.631Z,89.73
2018-05-23T03:15:56.625Z,89.64
2018-05-23T03:17:06.602Z,89.73
2018-05-23T03:18:16.319Z,88.87
2018-05-23T03:19:26.285Z,88.4
2018-05-23T03:20:35.994Z,89.35
2018-05-23T03:21:45.955Z,89.06
2018-05-23T03:22:56.070Z,88.97
2018-05-23T03:24:06.031Z,89.06
2018-05-23T03:25:16.014Z,88.68
2018-05-23T03:26:25.991Z,88.59
2018-05-23T03:27:35.969Z,88.2
2018-05-23T03:28:45.938Z,87.82
2018-05-23T03:29:55.986Z,87.92
2018-05-23T03:31:05.957Z,88.01
2018-05-23T03:32:15.667Z,88.87
2018-05-23T03:33:25.638Z,88.68
2018-05-23T03:34:35.645Z,88.11
2018-05-23T03:35:45.361Z,88.87
2018-05-23T03:36:55.327Z,88.59
2018-05-23T03:38:05.340Z,88.49
2018-05-23T03:39:15.306Z,89.25
2018-05-23T03:40:25.276Z,88.87
2018-05-23T03:41:34.987Z,88.97
2018-05-23T03:42:44.966Z,88.59
2018-05-23T03:43:54.944Z,88.78
2018-05-23T03:45:04.928Z,88.87
2018-05-23T03:46:14.912Z,89.35
2018-05-23T03:47:24.894Z,89.54
2018-05-23T03:48:34.866Z,89.73
2018-05-23T03:49:44.569Z,89.73
2018-05-23T03:50:54.286Z,89.45
2018-05-23T03:52:04.270Z,89.68
2018-05-23T03:53:14.251Z,89.92
2018-05-23T03:54:23.964Z,90.35
2018-05-23T03:55:34.026Z,90.4
2018-05-23T03:56:43.741Z,90.92
2018-05-23T03:57:53.714Z,90.21
2018-05-23T03:59:03.162Z,90.21
2018-05-23T04:00:12.878Z,90.5
2018-05-23T04:01:22.858Z,90.4
2018-05-23T04:02:32.825Z,89.97
2018-05-23T04:03:42.833Z,90.54
2018-05-23T04:04:52.690Z,90.73
2018-05-23T04:06:02.510Z,90.92
2018-05-23T04:07:12.489Z,90.83
2018-05-23T04:08:22.476Z,90.25
2018-05-23T04:09:32.453Z,90.92
2018-05-23T04:10:42.665Z,90.06
2018-05-23T04:11:52.652Z,90.45
2018-05-23T04:13:02.709Z,89.97
2018-05-23T04:14:12.416Z,90.06
2018-05-23T04:15:22.532Z,90.16
2018-05-23T04:16:32.750Z,89.97
2018-05-23T04:17:42.203Z,90.06
2018-05-23T04:18:52.178Z,89.87
2018-05-23T04:20:01.624Z,89.97
2018-05-23T04:21:11.617Z,89.68
2018-05-23T04:22:21.598Z,90.06
2018-05-23T04:23:31.564Z,89.3
2018-05-23T04:24:41.269Z,89.63
2018-05-23T04:25:51.584Z,89.53
2018-05-23T04:27:01.560Z,89.34
2018-05-23T04:28:11.533Z,89.34
2018-05-23T04:29:20.992Z,89.34
2018-05-23T04:30:30.446Z,89.15
2018-05-23T04:31:40.416Z,88.87
2018-05-23T04:32:50.388Z,88.87
2018-05-23T04:34:00.101Z,88.77
2018-05-23T04:35:10.075Z,88.48
2018-05-23T04:36:19.539Z,88.96
2018-05-23T04:37:29.592Z,88.29
2018-05-23T04:38:39.567Z,88.39
2018-05-23T04:39:49.542Z,88.1
2018-05-23T04:40:59.511Z,88.1
2018-05-23T04:42:09.312Z,87.91
2018-05-23T04:43:19.290Z,87.91
2018-05-23T04:44:29.017Z,88.2
2018-05-23T04:45:38.982Z,87.53
2018-05-23T04:46:48.957Z,87.62
2018-05-23T04:47:58.932Z,87.29
2018-05-23T04:49:08.920Z,87.86
2018-05-23T04:50:18.912Z,87.19
2018-05-23T04:51:28.877Z,87.09
2018-05-23T04:52:38.842Z,87
2018-05-23T04:53:48.813Z,86.61
2018-05-23T04:54:58.793Z,87.09
2018-05-23T04:56:08.515Z,86.52
2018-05-23T04:57:18.231Z,86.33
2018-05-23T04:58:28.215Z,86.04
2018-05-23T04:59:38.187Z,85.94
2018-05-23T05:00:48.161Z,85.66
2018-05-23T05:01:58.132Z,86.33
2018-05-23T05:03:08.128Z,85.94
2018-05-23T05:04:18.101Z,85.66
2018-05-23T05:05:28.165Z,85.61
2018-05-23T05:06:38.143Z,85.51
2018-05-23T05:07:48.110Z,85.61
2018-05-23T05:08:58.096Z,85.32
2018-05-23T05:10:08.318Z,85.03
2018-05-23T05:11:18.365Z,84.84
2018-05-23T05:12:28.328Z,84.65
2018-05-23T05:13:38.332Z,84.46
2018-05-23T05:14:48.545Z,84.65
2018-05-23T05:15:58.272Z,84.55
2018-05-23T05:17:07.991Z,84.65
2018-05-23T05:18:17.965Z,84.08
2018-05-23T05:19:27.414Z,83.69
2018-05-23T05:20:37.386Z,83.93
2018-05-23T05:21:47.110Z,84.12
2018-05-23T05:22:57.092Z,84.22
2018-05-23T05:24:06.808Z,83.83
2018-05-23T05:25:16.855Z,83.93
2018-05-23T05:26:26.840Z,83.93
2018-05-23T05:27:36.561Z,83.93
2018-05-23T05:28:46.566Z,83.93
2018-05-23T05:29:56.547Z,83.36
2018-05-23T05:31:06.559Z,83.36
2018-05-23T05:32:16.283Z,82.97
2018-05-23T05:33:26.271Z,82.49
2018-05-23T05:34:35.984Z,82.68
2018-05-23T05:35:46.028Z,82.24
2018-05-23T05:36:55.749Z,82.63
2018-05-23T05:38:05.486Z,82.06
2018-05-23T05:39:15.194Z,81.86
2018-05-23T05:40:25.330Z,81.67
2018-05-23T05:41:35.366Z,80.71
2018-05-23T05:42:45.371Z,81.38
2018-05-23T05:43:55.393Z,80.24
2018-05-23T05:45:05.397Z,80.47
2018-05-23T05:46:15.391Z,80.52
2018-05-23T05:47:25.130Z,79.99
2018-05-23T05:48:34.844Z,80.27
2018-05-23T05:49:44.831Z,80.27
2018-05-23T05:50:54.925Z,79.6
2018-05-23T05:52:04.938Z,79.13
2018-05-23T05:53:14.931Z,78.55
2018-05-23T05:54:24.657Z,78.84
2018-05-23T05:55:34.629Z,78.17
2018-05-23T05:56:44.608Z,78.45
2018-05-23T05:57:54.587Z,78.64
2018-05-23T05:59:04.559Z,77.92
2018-05-23T06:00:14.567Z,78.59
2018-05-23T06:01:24.551Z,77.92
2018-05-23T06:02:34.266Z,77.92
2018-05-23T06:03:44.241Z,77.53
2018-05-23T06:04:54.210Z,77.06
2018-05-23T06:06:04.203Z,76.86
2018-05-23T06:07:13.927Z,76.39
2018-05-23T06:08:23.904Z,76.77
2018-05-23T06:09:33.980Z,76.52
2018-05-23T06:10:44.020Z,76.42
2018-05-23T06:11:53.775Z,76.52
2018-05-23T06:13:03.783Z,75.46
2018-05-23T06:14:13.528Z,75.75
2018-05-23T06:15:23.254Z,75.37
2018-05-23T06:16:32.990Z,75.08
2018-05-23T06:17:42.701Z,75.08
2018-05-23T06:18:52.162Z,74.22
2018-05-23T06:20:02.145Z,74.73
2018-05-23T06:21:11.873Z,74.6
2018-05-23T06:22:22.047Z,74.44
2018-05-23T06:23:31.996Z,74.26
2018-05-23T06:24:41.993Z,73.97
2018-05-23T06:25:52.012Z,73.39
2018-05-23T06:27:01.761Z,73.39
2018-05-23T06:28:11.734Z,73.3
2018-05-23T06:29:21.447Z,72.72
2018-05-23T06:30:31.550Z,72.66
2018-05-23T06:31:41.323Z,72.81
2018-05-23T06:32:51.351Z,72.63
2018-05-23T06:34:01.375Z,72.37
2018-05-23T06:35:11.413Z,72.28
2018-05-23T06:36:21.519Z,72.28
2018-05-23T06:37:31.301Z,72.28
2018-05-23T06:38:41.288Z,71.98
2018-05-23T06:39:51.274Z,71.61
2018-05-23T06:41:01.253Z,71.89
2018-05-23T06:42:10.714Z,71.25
2018-05-23T06:43:20.439Z,71.83
2018-05-23T06:44:29.979Z,71.89
2018-05-23T06:45:39.705Z,71.55
2018-05-23T06:46:49.694Z,71.35
2018-05-23T06:47:59.699Z,71.35
2018-05-23T06:49:09.740Z,71.64
2018-05-23T06:50:19.794Z,71
2018-05-23T06:51:29.373Z,71.19
2018-05-23T06:52:39.602Z,70.62
2018-05-23T06:53:49.576Z,69.46
2018-05-23T06:54:59.563Z,69.85
2018-05-23T06:56:09.543Z,69.37
2018-05-23T06:57:19.547Z,68.6
2018-05-23T06:58:29.538Z,69.12
2018-05-23T06:59:39.242Z,68.35
2018-05-23T07:00:48.974Z,68.44
2018-05-23T07:01:58.976Z,67.58
2018-05-23T07:03:08.685Z,67.48
2018-05-23T07:04:18.689Z,67.19
2018-05-23T07:05:28.680Z,67.58
2018-05-23T07:06:38.154Z,66.91
2018-05-23T07:07:48.139Z,66.65
2018-05-23T07:08:57.602Z,66.46
2018-05-23T07:10:07.326Z,66.55
2018-05-23T07:11:17.442Z,65.97
2018-05-23T07:12:27.153Z,65.78
2018-05-23T07:13:37.180Z,64.82
2018-05-23T07:14:46.909Z,64.66
2018-05-23T07:15:56.891Z,64.28
2018-05-23T07:17:06.628Z,63.7
2018-05-23T07:18:16.413Z,64.66
2018-05-23T07:19:26.405Z,64.28
2018-05-23T07:20:36.379Z,64.28
2018-05-23T07:21:45.885Z,63.22
2018-05-23T07:22:55.634Z,62.83
2018-05-23T07:24:05.702Z,63.41
2018-05-23T07:25:15.767Z,62.83
2018-05-23T07:26:25.751Z,62.57
2018-05-23T07:27:35.738Z,62.48
2018-05-23T07:28:45.459Z,62.48
2018-05-23T07:29:55.500Z,62.09
2018-05-23T07:31:05.137Z,61.61
2018-05-23T07:32:15.124Z,61.16
2018-05-23T07:33:24.856Z,61.45
2018-05-23T07:34:34.841Z,61.55
2018-05-23T07:35:44.852Z,60.68
2018-05-23T07:36:54.846Z,60.77
2018-05-23T07:38:04.835Z,60.77
2018-05-23T07:39:14.546Z,60.2
2018-05-23T07:40:24.528Z,60.68
2018-05-23T07:41:34.533Z,60
2018-05-23T07:42:44.506Z,59.52
2018-05-23T07:43:54.502Z,59.33
2018-05-23T07:45:04.494Z,59.65
2018-05-23T07:46:14.488Z,59.65
2018-05-23T07:47:24.204Z,60.03
2018-05-23T07:48:34.224Z,59.07
2018-05-23T07:49:44.207Z,58.4
2018-05-23T07:50:54.183Z,56.66
2018-05-23T07:52:04.168Z,55.7
2018-05-23T07:53:14.189Z,55.22
2018-05-23T07:54:24.175Z,55.79
2018-05-23T07:55:33.909Z,55.7
2018-05-23T07:56:44.049Z,55.22
2018-05-23T07:57:54.031Z,53.89
2018-05-23T07:59:04.038Z,53.8
2018-05-23T08:00:14.098Z,53.41
2018-05-23T08:01:24.090Z,53.61
2018-05-23T08:02:34.116Z,53.31
2018-05-23T08:03:43.886Z,53.61
2018-05-23T08:04:53.603Z,53.03
2018-05-23T08:06:03.586Z,52.83
2018-05-23T08:07:13.587Z,52.35
2018-05-23T08:08:23.048Z,51.7
2018-05-23T08:09:33.025Z,51.8
2018-05-23T08:10:43.014Z,51.99
2018-05-23T08:11:53.007Z,51.41
2018-05-23T08:13:03.012Z,51.03
2018-05-23T08:14:12.735Z,50.84
2018-05-23T08:15:22.193Z,50.16
2018-05-23T08:16:32.399Z,50.67
2018-05-23T08:17:42.381Z,51.05
2018-05-23T08:18:52.108Z,50.96
2018-05-23T08:20:02.101Z,51.15
2018-05-23T08:21:11.828Z,51.05
2018-05-23T08:22:21.544Z,51.05
2018-05-23T08:23:31.780Z,50.09
2018-05-23T08:24:41.536Z,50.86
2018-05-23T08:25:51.543Z,50.86
2018-05-23T08:27:01.512Z,50.31
2018-05-23T08:28:11.508Z,50.01
2018-05-23T08:29:21.500Z,49.15
2018-05-23T08:30:31.518Z,48.95
2018-05-23T08:31:41.244Z,49.73
2018-05-23T08:32:51.243Z,49.05
2018-05-23T08:34:01.237Z,48.47
2018-05-23T08:35:10.701Z,48.39
2018-05-23T08:36:20.748Z,47.81
2018-05-23T08:37:30.649Z,47.36
2018-05-23T08:38:40.375Z,45.74
2018-05-23T08:39:49.940Z,45.45
2018-05-23T08:40:59.956Z,44.79
2018-05-23T08:42:09.712Z,44.33
2018-05-23T08:43:19.744Z,42.8
2018-05-23T08:44:29.772Z,42.13
2018-05-23T08:45:39.797Z,42.9
2018-05-23T08:46:49.578Z,42.22
2018-05-23T08:47:59.584Z,41.56
2018-05-23T08:49:09.567Z,41.56
2018-05-23T08:50:19.550Z,41.2
2018-05-23T08:51:29.535Z,41.39
2018-05-23T08:52:39.536Z,41.3
2018-05-23T08:53:49.540Z,41.78
2018-05-23T08:54:59.537Z,41.3
2018-05-23T08:56:09.552Z,41.68
2018-05-23T08:57:19.282Z,40.61
2018-05-23T08:58:29.282Z,40.73
2018-05-23T08:59:39.040Z,40.64
2018-05-23T09:00:49.061Z,40.34
2018-05-23T09:01:59.063Z,39.69
2018-05-23T09:03:08.824Z,38.54
2018-05-23T09:04:18.825Z,38.73
2018-05-23T09:05:28.838Z,37.78
2018-05-23T09:06:38.573Z,37.49
2018-05-23T09:07:48.312Z,37.22
2018-05-23T09:08:58.323Z,37.51
2018-05-23T09:10:08.554Z,37.41
2018-05-23T09:11:18.563Z,37.32
2018-05-23T09:12:29.000Z,36.75
2018-05-23T09:13:39.549Z,37.14
2018-05-23T09:14:49.023Z,36.46
2018-05-23T09:15:59.016Z,36.73
2018-05-23T09:17:09.008Z,35.49
2018-05-23T09:18:18.750Z,35.76
2018-05-23T09:19:28.505Z,35.49
2018-05-23T09:20:38.272Z,34.32
2018-05-23T09:21:48.007Z,35.49
2018-05-23T09:22:58.036Z,35.97
2018-05-23T09:24:08.041Z,36.07
2018-05-23T09:25:18.069Z,35.8
2018-05-23T09:26:28.218Z,35.13
2018-05-23T09:27:37.996Z,35.61
2018-05-23T09:28:48.048Z,35.61
2018-05-23T09:29:58.106Z,35.91
2018-05-23T09:31:08.139Z,35.99
2018-05-23T09:32:18.352Z,36.49
2018-05-23T09:33:28.499Z,35.99
2018-05-23T09:34:38.493Z,35.03
2018-05-23T09:35:48.504Z,34.86
2018-05-23T09:36:58.519Z,33.69
2018-05-23T09:38:08.544Z,33.9
2018-05-23T09:39:18.403Z,33.53
2018-05-23T09:40:28.514Z,33.53
2018-05-23T09:41:38.533Z,33.62
2018-05-23T09:42:48.289Z,33.62
2018-05-23T09:43:58.295Z,32.67
2018-05-23T09:45:08.360Z,32.28
2018-05-23T09:46:18.752Z,31.49
2018-05-23T09:47:28.791Z,31.02
2018-05-23T09:48:38.557Z,31.79
2018-05-23T09:49:48.568Z,32.08
2018-05-23T09:50:58.306Z,32.29
2018-05-23T09:52:08.434Z,31.99
2018-05-23T09:53:18.481Z,31.82
2018-05-23T09:54:28.496Z,31.33
2018-05-23T09:55:38.596Z,30.45
2018-05-23T09:56:48.602Z,30.27
2018-05-23T09:57:58.594Z,30.18
2018-05-23T09:59:08.594Z,29.69
2018-05-23T10:00:18.611Z,29.31
2018-05-23T10:01:28.713Z,29.5
2018-05-23T10:02:38.662Z,28.63
2018-05-23T10:03:48.646Z,28.05
2018-05-23T10:04:58.635Z,27.95
2018-05-23T10:06:08.624Z,27.75
2018-05-23T10:07:18.622Z,27.84
2018-05-23T10:08:28.652Z,28.04
2018-05-23T10:09:38.640Z,27.65
2018-05-23T10:10:48.625Z,27.55
2018-05-23T10:11:58.643Z,28.04
2018-05-23T10:13:08.385Z,27.95
2018-05-23T10:14:18.130Z,28.53
2018-05-23T10:15:27.877Z,28.74
2018-05-23T10:16:37.975Z,29.02
2018-05-23T10:17:47.998Z,29.39
2018-05-23T10:18:57.996Z,28.71
2018-05-23T10:20:07.996Z,27.62
2018-05-23T10:21:17.981Z,27.44
2018-05-23T10:22:27.991Z,27.64
2018-05-23T10:23:37.718Z,28.71
2018-05-23T10:24:47.723Z,28.39
2018-05-23T10:25:57.717Z,29.47
2018-05-23T10:27:07.732Z,29.85
2018-05-23T10:28:17.215Z,28.96
2018-05-23T10:29:27.220Z,29.56
2018-05-23T10:30:37.222Z,29.35
2018-05-23T10:31:47.216Z,29.75
2018-05-23T10:32:57.257Z,29.64
2018-05-23T10:34:07.268Z,29.66
2018-05-23T10:35:17.283Z,27.72
2018-05-23T10:36:27.026Z,27.73
2018-05-23T10:37:36.764Z,27.65
2018-05-23T10:38:46.754Z,26.88
2018-05-23T10:39:56.812Z,26.6
2018-05-23T10:41:06.816Z,25.44
2018-05-23T10:42:16.812Z,25.94
2018-05-23T10:43:26.831Z,24.86
2018-05-23T10:44:36.848Z,24.27
2018-05-23T10:45:46.867Z,23.41
2018-05-23T10:46:56.635Z,24.77
2018-05-23T10:48:06.650Z,24.76
2018-05-23T10:49:16.717Z,25.63
2018-05-23T10:50:26.731Z,26.42
2018-05-23T10:51:36.879Z,25.24
2018-05-23T10:52:47.152Z,24.27
2018-05-23T10:53:57.171Z,23.99
2018-05-23T10:55:06.684Z,24.09
2018-05-23T10:56:16.437Z,24.09
2018-05-23T10:57:26.459Z,24.29
2018-05-23T10:58:36.466Z,25.06
2018-05-23T10:59:46.533Z,23.58
2018-05-23T11:00:56.531Z,23.48
2018-05-23T11:02:06.540Z,23.87
2018-05-23T11:03:16.563Z,23.2
2018-05-23T11:04:26.570Z,22.91
2018-05-23T11:05:36.442Z,23.02
2018-05-23T11:06:46.250Z,23.02
2018-05-23T11:07:56.240Z,23.3
2018-05-23T11:09:06.135Z,22.91
2018-05-23T11:10:16.265Z,23.09
2018-05-23T11:11:26.276Z,23.2
2018-05-23T11:12:36.294Z,23.31
2018-05-23T11:13:45.814Z,23.7
2018-05-23T11:14:55.667Z,24.09
2018-05-23T11:16:05.965Z,24.19
2018-05-23T11:17:15.999Z,23.6
2018-05-23T11:18:26.010Z,23.49
2018-05-23T11:19:35.738Z,23.59
2018-05-23T11:20:45.474Z,24.08
2018-05-23T11:21:55.483Z,24.08
2018-05-23T11:23:05.507Z,23.7
2018-05-23T11:24:15.264Z,24.19
2018-05-23T11:25:25.008Z,23.9
2018-05-23T11:26:34.739Z,23.5
2018-05-23T11:27:44.217Z,23.12
2018-05-23T11:28:53.949Z,23.52
2018-05-23T11:30:03.423Z,23.61
2018-05-23T11:31:13.157Z,23.52
2018-05-23T11:32:23.211Z,23.42
2018-05-23T11:33:33.224Z,23.22
2018-05-23T11:34:43.238Z,23.11
2018-05-23T11:35:53.222Z,23.41
2018-05-23T11:37:02.981Z,23.61
2018-05-23T11:38:13.004Z,23.61
2018-05-23T11:39:22.739Z,24.27
2018-05-23T11:40:32.750Z,23.39
2018-05-23T11:41:42.550Z,23
2018-05-23T11:42:52.583Z,23
2018-05-23T11:44:02.352Z,22.42
2018-05-23T11:45:12.096Z,21.27
2018-05-23T11:46:21.582Z,21.97
2018-05-23T11:47:31.776Z,21.66
2018-05-23T11:48:41.789Z,21.09
2018-05-23T11:49:51.587Z,20.59
2018-05-23T11:51:01.070Z,22.06
2018-05-23T11:52:10.640Z,22.63
2018-05-23T11:53:20.660Z,22.33
2018-05-23T11:54:30.654Z,21.84
2018-05-23T11:55:40.749Z,21.76
2018-05-23T11:56:50.787Z,21.28
2018-05-23T11:58:00.784Z,20.59
2018-05-23T11:59:10.257Z,21.09
2018-05-23T12:00:19.992Z,21.29
2018-05-23T12:01:29.730Z,21.29
2018-05-23T12:02:39.210Z,20.21
2018-05-23T12:03:48.716Z,19.64
2018-05-23T12:04:58.195Z,19.26
2018-05-23T12:06:08.223Z,20.25
2018-05-23T12:07:17.964Z,19.85
2018-05-23T12:08:27.452Z,19.66
2018-05-23T12:09:37.335Z,18.98
2018-05-23T12:10:46.851Z,19.27
2018-05-23T12:11:56.858Z,19.56
2018-05-23T12:13:06.892Z,19.67
2018-05-23T12:14:16.655Z,20.46
2018-05-23T12:15:26.409Z,20.65
2018-05-23T12:16:36.185Z,21.42
2018-05-23T12:17:45.413Z,21.7
2018-05-23T12:18:55.155Z,22.96
2018-05-23T12:20:05.175Z,22.46
2018-05-23T12:21:14.408Z,21.29
2018-05-23T12:22:24.154Z,20.62
2018-05-23T12:23:34.168Z,20.14
2018-05-23T12:24:44.194Z,19.86
2018-05-23T12:25:54.229Z,20.54
2018-05-23T12:27:03.984Z,21.22
2018-05-23T12:28:13.749Z,20.82
2018-05-23T12:29:23.494Z,20.53
2018-05-23T12:30:33.266Z,20.82
2018-05-23T12:31:43.298Z,21.12
2018-05-23T12:32:53.036Z,21.33
2018-05-23T12:34:03.053Z,21.31
2018-05-23T12:35:13.066Z,21.9
2018-05-23T12:36:23.090Z,22.2
2018-05-23T12:37:32.569Z,22.28
2018-05-23T12:38:42.594Z,22.19
2018-05-23T12:39:52.374Z,22.38
2018-05-23T12:41:02.590Z,22.28
2018-05-23T12:42:12.641Z,22.56
2018-05-23T12:43:22.407Z,22.27
2018-05-23T12:44:32.165Z,22.66
2018-05-23T12:45:42.167Z,23.43
2018-05-23T12:46:52.176Z,23.22
2018-05-23T12:48:02.223Z,23.42
2018-05-23T12:49:12.211Z,24.18
2018-05-23T12:50:22.201Z,22.42
2018-05-23T12:51:32.206Z,22.34
2018-05-23T12:52:42.201Z,22.06
2018-05-23T12:53:51.689Z,22.06
2018-05-23T12:55:01.432Z,22.46
2018-05-23T12:56:11.436Z,22.16
2018-05-23T12:57:21.197Z,21.28
2018-05-23T12:58:30.686Z,21.39
2018-05-23T12:59:40.462Z,20.9
2018-05-23T13:00:50.221Z,20.72
2018-05-23T13:02:00.207Z,21.2
2018-05-23T13:03:09.959Z,20.81
2018-05-23T13:04:19.801Z,20.62
2018-05-23T13:05:29.575Z,20.81
2018-05-23T13:06:39.071Z,20.03
2018-05-23T13:07:49.103Z,20.72
2018-05-23T13:08:58.584Z,20.32
2018-05-23T13:10:08.592Z,20.24
2018-05-23T13:11:18.592Z,19.76
2018-05-23T13:12:28.194Z,18.88
2018-05-23T13:13:38.431Z,18.98
2018-05-23T13:14:48.449Z,18.88
2018-05-23T13:15:58.186Z,18.99
2018-05-23T13:17:07.657Z,18.29
2018-05-23T13:18:17.415Z,18.29
2018-05-23T13:19:26.894Z,18.29
2018-05-23T13:20:36.896Z,18.49
2018-05-23T13:21:46.899Z,18.69
2018-05-23T13:22:56.112Z,19.37
2018-05-23T13:24:06.102Z,19.26
2018-05-23T13:25:15.866Z,19.15
2018-05-23T13:26:25.865Z,19.94
2018-05-23T13:27:35.589Z,20.12
2018-05-23T13:28:45.592Z,20.21
2018-05-23T13:29:55.622Z,20.8
2018-05-23T13:31:05.668Z,21.09
2018-05-23T13:32:15.657Z,21.17
2018-05-23T13:33:25.660Z,21.17
2018-05-23T13:34:35.402Z,20.89
2018-05-23T13:35:45.428Z,20.59
2018-05-23T13:36:55.442Z,20.7
2018-05-23T13:38:05.428Z,21.09
2018-05-23T13:39:15.433Z,21.86
2018-05-23T13:40:25.446Z,22.14
2018-05-23T13:41:35.454Z,21.56
2018-05-23T13:42:45.473Z,22.03
2018-05-23T13:43:55.482Z,22.03
2018-05-23T13:45:05.638Z,22.51
2018-05-23T13:46:15.654Z,22.31
2018-05-23T13:47:25.661Z,22.61
2018-05-23T13:48:35.436Z,22.89
2018-05-23T13:49:45.432Z,22.87
2018-05-23T13:50:55.192Z,23.16
2018-05-23T13:52:04.923Z,22.48
2018-05-23T13:53:14.922Z,22.38
2018-05-23T13:54:24.658Z,23.26
2018-05-23T13:55:34.415Z,23.36
2018-05-23T13:56:44.422Z,24.12
2018-05-23T13:57:54.415Z,24.12
2018-05-23T13:59:04.492Z,23.25
2018-05-23T14:00:14.237Z,23.27
2018-05-23T14:01:24.257Z,23.48
2018-05-23T14:02:33.998Z,23.48
2018-05-23T14:03:43.994Z,23.28
2018-05-23T14:04:53.747Z,22.71
2018-05-23T14:06:03.763Z,22.41
2018-05-23T14:07:13.779Z,23.3
2018-05-23T14:08:23.817Z,22.33
2018-05-23T14:09:33.827Z,21.56
2018-05-23T14:10:43.789Z,21.66
2018-05-23T14:11:53.772Z,22.06
2018-05-23T14:13:03.774Z,22.16
2018-05-23T14:14:13.790Z,21.09
2018-05-23T14:15:23.786Z,20.62
2018-05-23T14:16:33.533Z,20.14
2018-05-23T14:17:43.621Z,20.04
2018-05-23T14:18:53.629Z,19.36
2018-05-23T14:20:03.470Z,19.65
2018-05-23T14:21:13.474Z,19.96
2018-05-23T14:22:23.240Z,19.96
2018-05-23T14:23:32.980Z,19.36
2018-05-23T14:24:42.987Z,19.26
2018-05-23T14:25:52.997Z,19.06
2018-05-23T14:27:03.018Z,18.88
2018-05-23T14:28:13.017Z,19.37
2018-05-23T14:29:23.009Z,19.75
2018-05-23T14:30:33.019Z,19.84
2018-05-23T14:31:43.024Z,20.34
2018-05-23T14:32:52.790Z,20.23
2018-05-23T14:34:02.866Z,19.84
2018-05-23T14:35:12.621Z,19.75
2018-05-23T14:36:22.631Z,19.96
2018-05-23T14:37:32.866Z,20.06
2018-05-23T14:38:42.906Z,20.73
2018-05-23T14:39:52.959Z,21.22
2018-05-23T14:41:02.962Z,21.2
2018-05-23T14:42:12.969Z,21.39
2018-05-23T14:43:22.444Z,21.09
2018-05-23T14:44:32.826Z,22.06
2018-05-23T14:45:42.879Z,22.35
2018-05-23T14:46:52.883Z,21.58
2018-05-23T14:48:02.629Z,21.85
2018-05-23T14:49:12.637Z,22.52
2018-05-23T14:50:22.637Z,23.38
2018-05-23T14:51:32.116Z,24.05
2018-05-23T14:52:41.848Z,24.24
2018-05-23T14:53:51.871Z,24.44
2018-05-23T14:55:01.918Z,24.05
2018-05-23T14:56:11.806Z,23.68
2018-05-23T14:57:22.061Z,23.49
2018-05-23T14:58:32.098Z,22.81
2018-05-23T14:59:42.103Z,22.34
2018-05-23T15:00:52.110Z,22.55
2018-05-23T15:02:02.125Z,22.44
2018-05-23T15:03:12.118Z,22.25